石垣島の過去48時間の天気

石垣島 (Ishigaki jima)

現在時刻: 2/27 23:55 JST (2/27 14:55 UTC) 以下の時間は現地時間です。

過去48時間のMETAR気象情報
時間 風向 風速(m/s) 視程 気温(℃) 湿度(%) 気圧(hPa) 天気現象
27 20:00 東北東 8 10km以上 22 78 1020
27 19:00 東北東 9 10km以上 22 78 1020
27 18:00 東北東 8 10km以上 21 88 1020
27 17:00 東北東 8 10km以上 22 88 1019 弱いしゅう雨
27 16:00 北東 6 10km以上 24 78 1019
27 15:00 北東 7 10km以上 24 78 1019
27 14:00 北東 7 10km以上 24 74 1020
27 13:00 北東 8 10km以上 24 74 1020
27 12:00 北東 7 10km以上 23 78 1021
27 11:00 北北東 8 10km以上 22 83 1021
27 10:00 北東 8 10km以上 22 78 1021
27 09:00 北北東 7 10km以上 21 88 1021
27 08:00 北北東 6 10km以上 21 88 1020
27 07:00 北北東 6 10km以上 20 94 1019
27 06:00 北北東 6 10km以上 21 88 1019
26 20:00 北北東 4 10km以上 22 100 1018
26 19:00 2 10km以上 22 94 1018
26 18:00 北北東 3 10km以上 23 94 1017 周辺でしゅう雨
26 17:21 不定 1 10km以上 23 94 1017 弱いしゅう雨
26 17:00 不定 1 10km以上 23 100 1017 しゅう雨
26 16:28 北東 2 10km以上 23 94 1017 弱いしゅう雨
26 16:00 東南東 2 10km以上 24 94 1017 しゅう雨
26 15:42 東南東 3 10km以上 24 89 1017 しゅう雨
26 15:32 東北東 3 10km以上 24 94 1017 強いしゅう雨
26 15:00 南南西 4 10km以上 27 74 1016
26 14:00 南南西 4 10km以上 27 70 1017
26 13:00 南西 4 10km以上 26 74 1018
26 12:00 南南東 4 10km以上 26 74 1018
26 11:00 南東 3 10km以上 26 74 1019
26 10:00 不定 1 10km以上 25 78 1019
26 09:00 不定 1 10km以上 23 89 1019
26 08:00 不定 1 10km以上 21 100 1019
26 07:00 不定 1 10km以上 21 100 1018
26 06:00 北西 2 10km以上 21 100 1017
ROIG 271100Z 07016KT 9999 FEW021 BKN030 22/18 Q1020
ROIG 271000Z 06017KT 9999 FEW017 SCT050 BKN100 22/18 Q1020
ROIG 270900Z 06016KT 9999 FEW013 BKN041 BKN100 21/19 Q1020
ROIG 270800Z 06016KT 9999 -SHRA FEW017 SCT025 BKN100 22/20 Q1019
ROIG 270700Z 04011KT 9999 FEW017 SCT030 24/20 Q1019
ROIG 270600Z 04013KT 9999 FEW018 BKN100 24/20 Q1019
ROIG 270500Z 04014KT 9999 FEW028 BKN100 24/19 Q1020
ROIG 270400Z 04015KT 9999 FEW023 BKN100 24/19 Q1020
ROIG 270300Z 04014KT 9999 FEW020 SCT030 23/19 Q1021
ROIG 270200Z 03015KT 9999 FEW020 BKN042 22/19 Q1021
ROIG 270100Z 04015KT 9999 FEW018 SCT025 BKN038 22/18 Q1021
ROIG 270000Z 03013KT 9999 SCT017 BKN025 21/19 Q1021
ROIG 262300Z 03012KT 9999 FEW015 SCT020 21/19 Q1020
ROIG 262200Z 02012KT 9999 FEW015 20/19 Q1019
ROIG 262100Z 02012KT 9999 FEW015 21/19 Q1019
ROIG 261100Z 03007KT 9999 FEW014 SCT050 BKN080 22/22 Q1018
ROIG 261000Z 35003KT 9999 FEW018 SCT050 BKN080 22/21 Q1018
ROIG 260900Z 03005KT 9999 VCSH FEW016 SCT025 BKN110 23/22 Q1017
ROIG 260821Z VRB01KT 9999 -SHRA FEW007 SCT025 BKN050 23/22 Q1017 RMK 1ST007 3CU025 6SC050 A3005
ROIG 260800Z VRB02KT 9999 R04/1100VP2000U SHRA FEW012 SCT020 BKN060 23/23 Q1017
ROIG 260728Z 05004KT 010V080 9999 -SHRA FEW017 SCT025 BKN050 23/22 Q1017 RMK 1CU017 4CU025 6SC050 A3004
ROIG 260700Z 12004KT 090V170 9999 R04/2000N SHRA FEW011 SCT020 BKN035 24/23 Q1017
ROIG 260642Z 11005KT 050V150 9999 R04/0400VP2000U SHRA FEW011 SCT020 24/22 Q1017 RMK 1CU011 3CU020 A3004
ROIG 260632Z 06006KT 360V160 9999 R04/0400VP2000D +SHRA SCT020 24/23 Q1017 RMK 3CU020 A3003 RI++
ROIG 260600Z 20008KT 170V240 9999 FEW018 SCT/// 27/22 Q1016
ROIG 260500Z 20008KT 170V230 9999 FEW019 SCT080 27/21 Q1017
ROIG 260400Z 22007KT 150V250 9999 FEW019 BKN100 26/21 Q1018
ROIG 260300Z 16008KT 130V200 9999 FEW023 BKN080 26/21 Q1018
ROIG 260200Z 14005KT 9999 FEW017 SCT070 26/21 Q1019
ROIG 260100Z VRB02KT 9999 FEW022 SCT070 BKN/// 25/21 Q1019
ROIG 260000Z VRB02KT 9999 FEW022 SCT090 BKN/// 23/21 Q1019
ROIG 252300Z VRB01KT 9999 FEW022 BKN080 21/21 Q1019
ROIG 252200Z VRB01KT 9999 FEW017 BKN080 21/21 Q1018
ROIG 252100Z 32004KT 9999 SCT011 BKN080 21/21 Q1017